createdAt,value
2023-05-23T00:00:44.785Z,4.57
2023-05-23T00:01:48.147Z,4.67
2023-05-23T00:02:51.496Z,6.00
2023-05-23T00:03:54.680Z,5.57
2023-05-23T00:04:57.810Z,5.33
2023-05-23T00:06:01.034Z,5.67
2023-05-23T00:07:04.206Z,5.43
2023-05-23T00:08:07.493Z,4.00
2023-05-23T00:09:10.672Z,4.86
2023-05-23T00:10:13.859Z,5.29
2023-05-23T00:11:17.144Z,4.71
2023-05-23T00:12:20.424Z,5.43
2023-05-23T00:13:24.037Z,5.71
2023-05-23T00:14:27.300Z,5.43
2023-05-23T00:15:30.487Z,6.00
2023-05-23T00:16:33.804Z,5.14
2023-05-23T00:17:37.078Z,4.00
2023-05-23T00:18:40.360Z,5.86
2023-05-23T00:19:43.622Z,5.71
2023-05-23T00:20:46.806Z,4.83
2023-05-23T00:21:49.916Z,5.33
2023-05-23T00:22:53.065Z,4.00
2023-05-23T00:23:56.248Z,4.86
2023-05-23T00:24:59.428Z,5.29
2023-05-23T00:26:02.916Z,5.14
2023-05-23T00:27:06.106Z,5.71
2023-05-23T00:28:09.279Z,4.14
2023-05-23T00:29:12.391Z,4.71
2023-05-23T00:30:15.641Z,6.71
2023-05-23T00:31:18.971Z,5.57
2023-05-23T00:32:22.968Z,5.00
2023-05-23T00:33:26.313Z,5.57
2023-05-23T00:34:29.708Z,5.43
2023-05-23T00:35:32.968Z,5.57
2023-05-23T00:36:36.379Z,4.57
2023-05-23T00:37:39.966Z,4.43
2023-05-23T00:38:43.276Z,5.43
2023-05-23T00:39:47.769Z,5.00
2023-05-23T00:40:51.028Z,4.37
2023-05-23T00:41:54.410Z,4.00
2023-05-23T00:42:57.751Z,4.43
2023-05-23T00:44:01.107Z,5.43
2023-05-23T00:45:04.503Z,5.71
2023-05-23T00:46:07.796Z,4.29
2023-05-23T00:47:11.253Z,6.00
2023-05-23T00:48:14.613Z,6.00
2023-05-23T00:49:18.040Z,5.71
2023-05-23T00:50:21.213Z,4.57
2023-05-23T00:51:24.512Z,5.29
2023-05-23T00:52:27.899Z,6.14
2023-05-23T00:53:31.378Z,5.00
2023-05-23T00:54:34.875Z,5.00
2023-05-23T00:55:38.436Z,5.86
2023-05-23T00:56:42.153Z,7.00
2023-05-23T00:57:45.747Z,6.37
2023-05-23T00:58:49.449Z,6.86
2023-05-23T00:59:52.828Z,6.71
2023-05-23T01:00:56.342Z,4.75
2023-05-23T01:01:59.826Z,4.57
2023-05-23T01:03:03.360Z,6.00
2023-05-23T01:04:06.897Z,5.14
2023-05-23T01:05:10.781Z,4.71
2023-05-23T01:06:14.267Z,5.14
2023-05-23T01:07:17.658Z,3.86
2023-05-23T01:08:21.042Z,3.86
2023-05-23T01:09:24.536Z,5.43
2023-05-23T01:10:27.744Z,5.43
2023-05-23T01:11:30.996Z,5.43
2023-05-23T01:12:34.292Z,5.14
2023-05-23T01:13:37.567Z,4.00
2023-05-23T01:14:40.848Z,4.43
2023-05-23T01:15:44.238Z,4.67
2023-05-23T01:16:47.352Z,3.86
2023-05-23T01:17:50.613Z,4.67
2023-05-23T01:18:53.853Z,2.86
2023-05-23T01:19:56.920Z,3.67
2023-05-23T01:21:00.164Z,4.67
2023-05-23T01:22:03.639Z,5.43
2023-05-23T01:23:06.873Z,4.86
2023-05-23T01:24:10.063Z,3.67
2023-05-23T01:25:13.343Z,4.50
2023-05-23T01:26:16.772Z,5.83
2023-05-23T01:27:20.285Z,6.57
2023-05-23T01:28:23.476Z,4.86
2023-05-23T01:29:26.641Z,4.57
2023-05-23T01:30:29.928Z,5.67
2023-05-23T01:31:32.997Z,6.00
2023-05-23T01:32:36.107Z,5.00
2023-05-23T01:33:39.267Z,5.14
2023-05-23T01:34:42.405Z,4.14
2023-05-23T01:35:45.614Z,4.14
2023-05-23T01:36:50.126Z,3.57
2023-05-23T01:37:53.343Z,5.75
2023-05-23T01:38:56.387Z,5.67
2023-05-23T01:39:59.686Z,4.57
2023-05-23T01:41:02.763Z,4.43
2023-05-23T01:42:06.144Z,4.43
2023-05-23T01:43:09.320Z,3.57
2023-05-23T01:44:12.608Z,4.14
2023-05-23T01:45:15.991Z,4.00
2023-05-23T01:46:19.204Z,4.00
2023-05-23T01:47:22.669Z,5.86
2023-05-23T01:48:26.148Z,4.00
2023-05-23T01:49:29.567Z,4.71
2023-05-23T01:50:32.839Z,5.86
2023-05-23T01:51:38.980Z,4.71
2023-05-23T01:52:42.275Z,3.37
2023-05-23T01:53:45.542Z,3.67
2023-05-23T01:54:48.725Z,3.33
2023-05-23T01:55:51.979Z,4.57
2023-05-23T01:56:55.359Z,4.00
2023-05-23T01:57:58.787Z,3.57
2023-05-23T01:59:02.285Z,4.29
2023-05-23T02:00:05.617Z,6.14
2023-05-23T02:01:09.033Z,5.00
2023-05-23T02:02:12.899Z,5.12
2023-05-23T02:03:16.658Z,5.57
2023-05-23T02:04:20.149Z,5.00
2023-05-23T02:05:23.519Z,5.29
2023-05-23T02:06:27.006Z,6.14
2023-05-23T02:07:30.494Z,4.00
2023-05-23T02:08:34.006Z,5.29
2023-05-23T02:09:37.469Z,6.62
2023-05-23T02:10:41.082Z,3.86
2023-05-23T02:11:44.558Z,4.00
2023-05-23T02:12:47.627Z,5.43
2023-05-23T02:13:51.121Z,6.67
2023-05-23T02:14:54.470Z,4.87
2023-05-23T02:15:57.892Z,6.14
2023-05-23T02:17:01.341Z,5.71
2023-05-23T02:18:04.589Z,7.86
2023-05-23T02:19:07.842Z,10.67
2023-05-23T02:20:11.162Z,8.00
2023-05-23T02:21:14.329Z,6.00
2023-05-23T02:22:17.500Z,4.33
2023-05-23T02:23:20.695Z,4.86
2023-05-23T02:24:23.857Z,3.57
2023-05-23T02:25:27.145Z,2.14
2023-05-23T02:26:30.326Z,2.29
2023-05-23T02:27:33.610Z,4.00
2023-05-23T02:28:36.894Z,5.43
2023-05-23T02:29:40.076Z,6.14
2023-05-23T02:30:43.365Z,3.57
2023-05-23T02:31:46.722Z,5.57
2023-05-23T02:32:50.069Z,8.57
2023-05-23T02:33:53.317Z,7.71
2023-05-23T02:34:57.490Z,5.00
2023-05-23T02:36:00.952Z,5.75
2023-05-23T02:37:03.963Z,5.67
2023-05-23T02:38:07.050Z,2.83
2023-05-23T02:39:10.126Z,2.14
2023-05-23T02:40:13.332Z,2.00
2023-05-23T02:41:16.409Z,2.43
2023-05-23T02:42:19.597Z,4.71
2023-05-23T02:43:22.770Z,5.33
2023-05-23T02:44:25.958Z,3.33
2023-05-23T02:45:29.161Z,2.17
2023-05-23T02:46:32.284Z,2.33
2023-05-23T02:47:35.513Z,2.71
2023-05-23T02:48:38.690Z,3.14
2023-05-23T02:49:41.965Z,1.83
2023-05-23T02:50:45.249Z,1.71
2023-05-23T02:51:48.534Z,3.29
2023-05-23T02:52:51.730Z,4.00
2023-05-23T02:53:54.783Z,3.00
2023-05-23T02:54:58.079Z,1.00
2023-05-23T02:56:01.286Z,3.71
2023-05-23T02:57:04.372Z,4.86
2023-05-23T02:58:07.196Z,3.14
2023-05-23T02:59:10.394Z,2.33
2023-05-23T03:00:13.577Z,2.33
2023-05-23T03:01:16.861Z,1.50
2023-05-23T03:02:20.055Z,1.83
2023-05-23T03:03:23.310Z,2.00
2023-05-23T03:04:26.522Z,2.00
2023-05-23T03:05:29.689Z,2.33
2023-05-23T03:06:32.986Z,3.00
2023-05-23T03:07:36.156Z,1.67
2023-05-23T03:08:39.454Z,3.00
2023-05-23T03:09:42.631Z,2.67
2023-05-23T03:10:45.905Z,1.83
2023-05-23T03:11:49.094Z,2.17
2023-05-23T03:12:52.272Z,4.00
2023-05-23T03:13:55.352Z,2.83
2023-05-23T03:14:58.634Z,2.67
2023-05-23T03:16:01.832Z,2.00
2023-05-23T03:17:05.009Z,3.17
2023-05-23T03:18:08.224Z,3.00
2023-05-23T03:19:11.508Z,2.43
2023-05-23T03:20:14.648Z,1.71
2023-05-23T03:21:17.835Z,1.50
2023-05-23T03:22:20.986Z,2.57
2023-05-23T03:23:24.179Z,2.71
2023-05-23T03:24:27.269Z,3.14
2023-05-23T03:25:30.451Z,2.71
2023-05-23T03:26:36.958Z,2.86
2023-05-23T03:27:40.182Z,1.50
2023-05-23T03:28:43.506Z,1.43
2023-05-23T03:29:46.969Z,2.43
2023-05-23T03:30:50.560Z,3.43
2023-05-23T03:31:53.960Z,3.00
2023-05-23T03:32:57.263Z,3.57
2023-05-23T03:34:00.640Z,3.43
2023-05-23T03:35:04.108Z,2.86
2023-05-23T03:36:07.709Z,3.00
2023-05-23T03:37:11.221Z,3.43
2023-05-23T03:38:14.442Z,4.00
2023-05-23T03:39:17.876Z,3.86
2023-05-23T03:40:21.026Z,3.50
2023-05-23T03:41:24.092Z,3.67
2023-05-23T03:42:27.537Z,3.00
2023-05-23T03:43:30.857Z,3.86
2023-05-23T03:44:34.286Z,3.71
2023-05-23T03:45:37.810Z,3.00
2023-05-23T03:46:41.286Z,3.86
2023-05-23T03:47:44.684Z,4.86
2023-05-23T03:48:48.243Z,3.57
2023-05-23T03:49:51.664Z,4.00
2023-05-23T03:50:54.830Z,3.29
2023-05-23T03:51:58.085Z,3.83
2023-05-23T03:53:01.473Z,4.71
2023-05-23T03:54:04.858Z,5.17
2023-05-23T03:55:08.245Z,4.00
2023-05-23T03:56:11.645Z,3.71
2023-05-23T03:57:15.125Z,4.43
2023-05-23T03:58:18.521Z,4.43
2023-05-23T03:59:21.997Z,2.43
2023-05-23T04:00:25.291Z,2.14
2023-05-23T04:01:28.676Z,4.29
2023-05-23T04:02:32.030Z,5.86
2023-05-23T04:03:35.522Z,3.86
2023-05-23T04:04:39.158Z,4.29
2023-05-23T04:05:42.871Z,3.86
2023-05-23T04:06:46.522Z,3.00
2023-05-23T04:07:50.031Z,2.57
2023-05-23T04:08:53.442Z,4.43
2023-05-23T04:09:56.643Z,4.43
2023-05-23T04:10:59.965Z,4.43
2023-05-23T04:12:03.315Z,3.71
2023-05-23T04:13:06.761Z,3.00
2023-05-23T04:14:10.008Z,4.00
2023-05-23T04:15:13.321Z,5.14
2023-05-23T04:16:16.892Z,5.29
2023-05-23T04:17:20.291Z,4.57
2023-05-23T04:18:23.711Z,4.57
2023-05-23T04:19:27.165Z,4.14
2023-05-23T04:20:30.651Z,4.62
2023-05-23T04:21:34.245Z,3.86
2023-05-23T04:22:37.444Z,4.29
2023-05-23T04:23:40.936Z,3.00
2023-05-23T04:24:44.305Z,4.29
2023-05-23T04:25:47.576Z,5.43
2023-05-23T04:26:50.995Z,5.29
2023-05-23T04:27:54.359Z,4.14
2023-05-23T04:28:57.747Z,3.29
2023-05-23T04:30:01.150Z,4.29
2023-05-23T04:31:04.801Z,4.50
2023-05-23T04:32:08.595Z,3.71
2023-05-23T04:33:11.967Z,3.71
2023-05-23T04:34:15.395Z,4.00
2023-05-23T04:35:18.888Z,4.57
2023-05-23T04:36:22.477Z,4.00
2023-05-23T04:37:25.776Z,5.50
2023-05-23T04:38:29.031Z,5.57
2023-05-23T04:39:32.650Z,3.86
2023-05-23T04:40:36.137Z,3.14
2023-05-23T04:41:39.825Z,3.12
2023-05-23T04:42:43.210Z,4.29
2023-05-23T04:43:49.773Z,5.29
2023-05-23T04:44:53.068Z,3.00
2023-05-23T04:45:56.353Z,5.14
2023-05-23T04:46:59.890Z,4.00
2023-05-23T04:48:03.300Z,4.25
2023-05-23T04:49:06.587Z,5.43
2023-05-23T04:50:09.990Z,4.57
2023-05-23T04:51:14.404Z,4.43
2023-05-23T04:52:17.437Z,4.87
2023-05-23T04:53:21.689Z,4.83
2023-05-23T04:54:24.971Z,4.25
2023-05-23T04:55:28.257Z,3.50
2023-05-23T04:56:31.638Z,2.71
2023-05-23T04:57:34.829Z,4.14
2023-05-23T04:58:38.009Z,3.86
2023-05-23T04:59:41.078Z,4.71
2023-05-23T05:00:44.565Z,3.83
2023-05-23T05:01:48.162Z,3.00
2023-05-23T05:02:51.269Z,4.29
2023-05-23T05:03:54.416Z,4.71
2023-05-23T05:04:57.468Z,4.14
2023-05-23T05:06:00.546Z,5.14
2023-05-23T05:07:03.722Z,3.57
2023-05-23T05:08:06.956Z,2.33
2023-05-23T05:09:10.135Z,3.17
2023-05-23T05:10:13.309Z,3.83
2023-05-23T05:11:16.387Z,3.67
2023-05-23T05:12:19.678Z,3.71
2023-05-23T05:13:22.854Z,3.43
2023-05-23T05:14:26.144Z,3.33
2023-05-23T05:15:29.438Z,4.00
2023-05-23T05:16:32.669Z,4.43
2023-05-23T05:17:35.819Z,4.00
2023-05-23T05:18:39.144Z,4.00
2023-05-23T05:19:42.266Z,3.57
2023-05-23T05:20:45.439Z,2.67
2023-05-23T05:21:48.620Z,2.71
2023-05-23T05:22:51.901Z,3.43
2023-05-23T05:23:55.087Z,3.57
2023-05-23T05:24:58.373Z,2.71
2023-05-23T05:26:01.548Z,3.00
2023-05-23T05:27:04.730Z,3.00
2023-05-23T05:28:07.819Z,3.57
2023-05-23T05:29:11.089Z,2.00
2023-05-23T05:30:14.271Z,1.57
2023-05-23T05:31:17.483Z,1.57
2023-05-23T05:32:20.665Z,3.00
2023-05-23T05:33:23.832Z,3.86
2023-05-23T05:34:27.015Z,3.29
2023-05-23T05:35:30.080Z,1.83
2023-05-23T05:36:33.273Z,3.67
2023-05-23T05:37:36.550Z,4.67
2023-05-23T05:38:39.525Z,4.00
2023-05-23T05:39:42.807Z,3.00
2023-05-23T05:40:45.960Z,3.43
2023-05-23T05:41:49.281Z,4.00
2023-05-23T05:42:52.376Z,4.00
2023-05-23T05:43:55.420Z,3.00
2023-05-23T05:44:58.502Z,4.00
2023-05-23T05:46:01.709Z,4.00
2023-05-23T05:47:04.887Z,3.33
2023-05-23T05:48:08.122Z,4.17
2023-05-23T05:49:12.482Z,4.57
2023-05-23T05:50:15.656Z,3.50
2023-05-23T05:51:18.758Z,3.00
2023-05-23T05:52:21.811Z,3.67
2023-05-23T05:53:25.092Z,4.57
2023-05-23T05:54:28.315Z,4.00
2023-05-23T05:55:31.561Z,4.43
2023-05-23T05:56:34.770Z,3.29
2023-05-23T05:57:37.830Z,3.29
2023-05-23T05:58:41.117Z,3.29
2023-05-23T05:59:44.399Z,2.57
2023-05-23T06:00:47.494Z,3.14
2023-05-23T06:01:50.638Z,4.14
2023-05-23T06:02:53.876Z,3.83
2023-05-23T06:03:57.268Z,4.00
2023-05-23T06:05:00.750Z,3.57
2023-05-23T06:06:04.002Z,1.86
2023-05-23T06:07:07.383Z,3.43
2023-05-23T06:08:10.979Z,2.71
2023-05-23T06:09:14.156Z,2.43
2023-05-23T06:10:17.341Z,3.00
2023-05-23T06:11:20.635Z,3.17
2023-05-23T06:12:23.836Z,4.00
2023-05-23T06:13:27.310Z,4.00
2023-05-23T06:14:30.600Z,3.57
2023-05-23T06:15:34.473Z,3.14
2023-05-23T06:16:38.061Z,2.57
2023-05-23T06:17:41.490Z,2.86
2023-05-23T06:18:44.942Z,5.29
2023-05-23T06:19:48.224Z,4.29
2023-05-23T06:20:51.725Z,2.86
2023-05-23T06:21:55.072Z,4.00
2023-05-23T06:22:58.405Z,3.43
2023-05-23T06:24:01.776Z,3.33
2023-05-23T06:25:05.264Z,2.43
2023-05-23T06:26:08.753Z,3.00
2023-05-23T06:27:12.007Z,3.14
2023-05-23T06:28:15.336Z,3.43
2023-05-23T06:29:18.624Z,3.14
2023-05-23T06:30:21.998Z,2.57
2023-05-23T06:31:25.396Z,2.57
2023-05-23T06:32:28.698Z,2.43
2023-05-23T06:33:32.061Z,2.57
2023-05-23T06:34:35.744Z,3.14
2023-05-23T06:35:39.227Z,3.00
2023-05-23T06:36:42.537Z,2.43
2023-05-23T06:37:45.870Z,3.00
2023-05-23T06:38:49.294Z,3.00
2023-05-23T06:39:52.673Z,3.00
2023-05-23T06:40:55.951Z,3.71
2023-05-23T06:41:59.243Z,4.71
2023-05-23T06:43:02.423Z,4.86
2023-05-23T06:44:05.608Z,4.71
2023-05-23T06:45:08.796Z,6.33
2023-05-23T06:46:12.008Z,4.00
2023-05-23T06:47:15.253Z,5.00
2023-05-23T06:48:18.438Z,4.29
2023-05-23T06:49:21.606Z,2.29
2023-05-23T06:50:24.906Z,3.71
2023-05-23T06:51:28.058Z,5.57
2023-05-23T06:52:31.268Z,3.71
2023-05-23T06:53:34.455Z,3.17
2023-05-23T06:54:37.731Z,3.67
2023-05-23T06:55:41.060Z,5.00
2023-05-23T06:56:44.315Z,4.00
2023-05-23T06:57:47.889Z,2.67
2023-05-23T06:58:51.387Z,5.14
2023-05-23T06:59:54.773Z,4.00
2023-05-23T07:00:58.175Z,4.00
2023-05-23T07:02:01.541Z,4.00
2023-05-23T07:03:04.869Z,3.86
2023-05-23T07:04:08.728Z,4.25
2023-05-23T07:05:12.133Z,4.29
2023-05-23T07:06:15.603Z,4.00
2023-05-23T07:07:18.815Z,3.14
2023-05-23T07:08:22.334Z,2.43
2023-05-23T07:09:25.862Z,2.57
2023-05-23T07:10:29.371Z,2.75
2023-05-23T07:11:32.747Z,3.00
2023-05-23T07:12:36.334Z,4.14
2023-05-23T07:13:39.637Z,4.86
2023-05-23T07:14:42.983Z,4.43
2023-05-23T07:15:46.285Z,4.29
2023-05-23T07:16:49.778Z,4.00
2023-05-23T07:17:53.435Z,3.29
2023-05-23T07:18:56.780Z,3.62
2023-05-23T07:20:00.346Z,3.57
2023-05-23T07:21:03.677Z,3.14
2023-05-23T07:22:07.113Z,2.86
2023-05-23T07:23:10.711Z,4.86
2023-05-23T07:24:14.305Z,4.00
2023-05-23T07:25:17.915Z,3.14
2023-05-23T07:26:21.505Z,4.57
2023-05-23T07:27:25.286Z,4.00
2023-05-23T07:28:28.893Z,4.00
2023-05-23T07:29:32.877Z,4.86
2023-05-23T07:30:36.471Z,4.86
2023-05-23T07:33:00.653Z,3.50
2023-05-23T07:34:05.559Z,3.71
2023-05-23T07:35:08.654Z,3.00
2023-05-23T07:36:11.865Z,3.00
2023-05-23T07:37:15.122Z,4.14
2023-05-23T07:38:18.299Z,4.14
2023-05-23T07:39:21.489Z,3.00
2023-05-23T07:40:24.776Z,2.57
2023-05-23T07:41:28.403Z,3.57
2023-05-23T07:42:31.433Z,5.00
2023-05-23T07:43:34.513Z,3.00
2023-05-23T07:44:37.863Z,2.86
2023-05-23T07:45:41.433Z,3.57
2023-05-23T07:46:44.908Z,4.57
2023-05-23T07:47:48.379Z,3.71
2023-05-23T07:48:51.714Z,3.43
2023-05-23T07:49:55.148Z,3.57
2023-05-23T07:50:58.592Z,3.43
2023-05-23T07:52:02.015Z,3.50
2023-05-23T07:53:05.508Z,3.43
2023-05-23T07:54:08.887Z,4.00
2023-05-23T07:55:12.173Z,4.43
2023-05-23T07:56:15.451Z,4.71
2023-05-23T07:57:18.646Z,3.86
2023-05-23T07:58:21.931Z,5.00
2023-05-23T07:59:25.083Z,3.71
2023-05-23T08:00:28.393Z,2.67
2023-05-23T08:01:31.689Z,3.33
2023-05-23T08:02:35.076Z,3.67
2023-05-23T08:03:38.261Z,3.00
2023-05-23T08:04:41.687Z,4.33
2023-05-23T08:05:44.863Z,4.00
2023-05-23T08:07:03.629Z,4.29
2023-05-23T08:07:52.405Z,3.37
2023-05-23T08:08:55.519Z,4.29
2023-05-23T08:09:58.673Z,3.71
2023-05-23T08:11:01.846Z,2.00
2023-05-23T08:12:05.040Z,2.00
2023-05-23T08:13:08.216Z,2.00
2023-05-23T08:14:11.257Z,3.00
2023-05-23T08:15:14.448Z,4.00
2023-05-23T08:16:17.696Z,4.29
2023-05-23T08:17:20.964Z,3.57
2023-05-23T08:18:24.283Z,2.57
2023-05-23T08:19:27.466Z,3.29
2023-05-23T08:20:30.854Z,4.00
2023-05-23T08:21:34.386Z,3.00
2023-05-23T08:22:37.474Z,2.57
2023-05-23T08:23:40.856Z,2.67
2023-05-23T08:24:43.994Z,3.00
2023-05-23T08:25:47.213Z,3.00
2023-05-23T08:26:50.410Z,2.29
2023-05-23T08:27:53.581Z,2.00
2023-05-23T08:28:56.777Z,3.29
2023-05-23T08:30:00.071Z,5.43
2023-05-23T08:31:03.240Z,5.57
2023-05-23T08:32:06.375Z,4.00
2023-05-23T08:33:09.735Z,4.57
2023-05-23T08:34:12.982Z,5.14
2023-05-23T08:35:16.156Z,6.29
2023-05-23T08:36:19.553Z,7.29
2023-05-23T08:37:22.759Z,5.57
2023-05-23T08:38:25.788Z,5.43
2023-05-23T08:39:29.236Z,6.67
2023-05-23T08:40:32.376Z,6.43
2023-05-23T08:41:35.428Z,7.00
2023-05-23T08:42:38.607Z,5.71
2023-05-23T08:43:41.810Z,6.00
2023-05-23T08:44:44.927Z,6.43
2023-05-23T08:45:48.003Z,6.67
2023-05-23T08:46:51.057Z,6.29
2023-05-23T08:47:54.193Z,7.14
2023-05-23T08:48:57.358Z,4.83
2023-05-23T08:50:00.396Z,4.43
2023-05-23T08:51:03.509Z,5.00
2023-05-23T08:52:06.683Z,6.14
2023-05-23T08:53:09.735Z,7.83
2023-05-23T08:54:13.343Z,5.14
2023-05-23T08:55:16.632Z,4.86
2023-05-23T08:56:19.798Z,4.86
2023-05-23T08:57:22.888Z,6.00
2023-05-23T08:58:25.971Z,6.14
2023-05-23T08:59:29.026Z,7.00
2023-05-23T09:00:32.124Z,5.57
2023-05-23T09:01:35.212Z,5.43
2023-05-23T09:02:38.397Z,7.29
2023-05-23T09:03:41.356Z,8.33
2023-05-23T09:04:44.528Z,7.00
2023-05-23T09:05:47.976Z,6.43
2023-05-23T09:06:51.204Z,6.00
2023-05-23T09:07:54.398Z,7.43
2023-05-23T09:08:57.701Z,8.86
2023-05-23T09:10:00.888Z,9.86
2023-05-23T09:11:03.921Z,9.14
2023-05-23T09:12:06.980Z,7.33
2023-05-23T09:13:10.121Z,7.71
2023-05-23T09:14:13.188Z,10.00
2023-05-23T09:15:16.306Z,11.33
2023-05-23T09:16:19.344Z,9.43
2023-05-23T09:17:22.415Z,8.86
2023-05-23T09:18:25.631Z,10.00
2023-05-23T09:19:28.828Z,10.33
2023-05-23T09:20:31.957Z,8.43
2023-05-23T09:22:59.142Z,7.37
2023-05-23T09:24:03.083Z,7.25
2023-05-23T09:25:06.481Z,8.33
2023-05-23T09:26:09.789Z,8.14
2023-05-23T09:27:13.061Z,8.43
2023-05-23T09:28:16.347Z,7.71
2023-05-23T09:29:19.642Z,7.29
2023-05-23T09:30:22.922Z,8.00
2023-05-23T09:31:25.958Z,7.50
2023-05-23T09:32:29.125Z,8.67
2023-05-23T09:33:32.270Z,9.00
2023-05-23T09:34:35.543Z,9.86
2023-05-23T09:35:38.727Z,11.14
2023-05-23T09:36:41.896Z,8.33
2023-05-23T09:37:45.377Z,7.33
2023-05-23T09:38:49.289Z,8.43
2023-05-23T09:39:52.731Z,7.57
2023-05-23T09:40:56.179Z,7.43
2023-05-23T09:41:59.976Z,7.57
2023-05-23T09:43:03.272Z,8.00
2023-05-23T09:44:06.634Z,8.14
2023-05-23T09:45:09.914Z,8.00
2023-05-23T09:46:13.200Z,6.57
2023-05-23T09:47:16.876Z,6.57
2023-05-23T09:48:20.139Z,6.14
2023-05-23T09:49:23.369Z,6.29
2023-05-23T09:50:26.657Z,8.43
2023-05-23T09:51:30.345Z,9.00
2023-05-23T09:52:33.735Z,8.86
2023-05-23T09:53:37.132Z,7.14
2023-05-23T09:54:40.524Z,6.86
2023-05-23T09:55:44.242Z,6.43
2023-05-23T09:56:47.681Z,4.50
2023-05-23T09:57:51.085Z,4.86
2023-05-23T09:58:54.167Z,6.57
2023-05-23T09:59:57.538Z,7.17
2023-05-23T10:01:00.761Z,6.57
2023-05-23T10:02:04.213Z,5.14
2023-05-23T10:03:07.557Z,5.71
2023-05-23T10:04:10.703Z,7.14
2023-05-23T10:05:13.960Z,5.57
2023-05-23T10:06:17.060Z,5.43
2023-05-23T10:07:20.150Z,6.86
2023-05-23T10:08:23.208Z,7.33
2023-05-23T10:09:26.477Z,7.71
2023-05-23T10:10:29.564Z,6.00
2023-05-23T10:11:32.866Z,6.86
2023-05-23T10:12:35.945Z,7.00
2023-05-23T10:13:39.107Z,5.00
2023-05-23T10:14:42.296Z,5.14
2023-05-23T10:15:45.376Z,6.43
2023-05-23T10:16:48.676Z,7.67
2023-05-23T10:17:51.896Z,8.67
2023-05-23T10:18:55.129Z,8.14
2023-05-23T10:20:05.480Z,7.71
2023-05-23T10:21:08.561Z,9.75
2023-05-23T10:22:11.603Z,8.71
2023-05-23T10:24:35.517Z,6.37
2023-05-23T10:25:38.682Z,6.86
2023-05-23T10:26:41.858Z,6.00
2023-05-23T10:27:44.960Z,6.33
2023-05-23T10:28:48.134Z,7.86
2023-05-23T10:29:51.315Z,9.14
2023-05-23T10:30:54.649Z,7.57
2023-05-23T10:31:57.811Z,6.67
2023-05-23T10:33:00.861Z,9.14
2023-05-23T10:34:04.277Z,9.29
2023-05-23T10:35:07.416Z,7.29
2023-05-23T10:36:10.610Z,7.71
2023-05-23T10:37:13.712Z,9.00
2023-05-23T10:38:16.872Z,8.00
2023-05-23T10:39:21.212Z,10.43
2023-05-23T10:40:25.688Z,10.50
2023-05-23T10:41:28.984Z,8.29
2023-05-23T10:42:32.058Z,6.43
2023-05-23T10:43:35.224Z,7.57
2023-05-23T10:44:38.317Z,7.00
2023-05-23T10:45:41.417Z,7.33
2023-05-23T10:46:46.544Z,8.00
2023-05-23T10:47:49.740Z,6.62
2023-05-23T10:48:52.982Z,6.86
2023-05-23T10:49:56.366Z,8.14
2023-05-23T10:50:59.751Z,9.57
2023-05-23T10:52:02.936Z,9.00
2023-05-23T10:53:06.320Z,10.71
2023-05-23T10:54:09.711Z,10.86
2023-05-23T10:55:14.018Z,8.38
2023-05-23T10:56:17.381Z,9.29
2023-05-23T10:57:20.688Z,11.00
2023-05-23T10:58:24.074Z,9.71
2023-05-23T10:59:27.464Z,7.71
2023-05-23T11:00:30.844Z,8.00
2023-05-23T11:01:34.307Z,8.43
2023-05-23T11:02:37.476Z,7.71
2023-05-23T11:03:41.064Z,7.29
2023-05-23T11:04:44.434Z,8.29
2023-05-23T11:05:47.680Z,8.71
2023-05-23T11:06:51.136Z,7.43
2023-05-23T11:07:54.449Z,8.71
2023-05-23T11:08:57.732Z,10.00
2023-05-23T11:10:01.332Z,9.57
2023-05-23T11:11:04.730Z,9.86
2023-05-23T11:12:08.109Z,10.71
2023-05-23T11:13:11.369Z,11.00
2023-05-23T11:14:14.899Z,11.57
2023-05-23T11:15:18.465Z,12.57
2023-05-23T11:16:21.786Z,11.00
2023-05-23T11:17:25.392Z,11.43
2023-05-23T11:18:28.833Z,15.14
2023-05-23T11:19:32.210Z,17.14
2023-05-23T11:20:35.498Z,15.57
2023-05-23T11:21:39.392Z,12.57
2023-05-23T11:22:42.796Z,12.00
2023-05-23T11:23:46.055Z,11.71
2023-05-23T11:24:49.357Z,11.43
2023-05-23T11:25:52.751Z,11.86
2023-05-23T11:26:55.931Z,12.29
2023-05-23T11:27:59.406Z,14.00
2023-05-23T11:29:02.588Z,12.71
2023-05-23T11:30:05.991Z,12.00
2023-05-23T11:31:09.279Z,11.43
2023-05-23T11:32:16.986Z,10.14
2023-05-23T11:33:17.630Z,10.13
2023-05-23T11:34:21.052Z,11.00
2023-05-23T11:35:24.244Z,12.00
2023-05-23T11:36:27.629Z,11.00
2023-05-23T11:37:30.926Z,11.67
2023-05-23T11:38:34.300Z,12.43
2023-05-23T11:39:37.573Z,12.71
2023-05-23T11:40:41.419Z,11.57
2023-05-23T11:41:45.293Z,11.00
2023-05-23T11:42:48.683Z,13.00
2023-05-23T11:43:52.098Z,15.71
2023-05-23T11:44:55.472Z,15.43
2023-05-23T11:45:58.780Z,12.67
2023-05-23T11:47:02.130Z,14.43
2023-05-23T11:48:10.874Z,14.57
2023-05-23T11:49:14.232Z,15.13
2023-05-23T11:50:17.612Z,15.71
2023-05-23T11:51:20.988Z,14.29
2023-05-23T11:52:24.024Z,11.14
2023-05-23T11:53:27.397Z,10.86
2023-05-23T11:54:30.843Z,12.43
2023-05-23T11:55:34.231Z,14.14
2023-05-23T11:56:37.713Z,13.14
2023-05-23T11:57:40.804Z,13.71
2023-05-23T11:58:44.191Z,15.00
2023-05-23T11:59:47.678Z,15.14
2023-05-23T12:00:52.203Z,18.00
2023-05-23T12:01:55.278Z,20.50
2023-05-23T12:02:58.673Z,18.50
2023-05-23T12:04:01.937Z,17.50
2023-05-23T12:05:05.319Z,16.50
2023-05-23T12:06:08.713Z,16.33
2023-05-23T12:07:12.539Z,15.83
2023-05-23T12:08:15.795Z,15.71
2023-05-23T12:09:19.185Z,14.86
2023-05-23T12:10:22.684Z,11.86
2023-05-23T12:11:26.150Z,13.29
2023-05-23T12:12:30.143Z,13.00
2023-05-23T12:13:33.944Z,11.38
2023-05-23T12:14:37.334Z,9.71
2023-05-23T12:15:40.956Z,8.29
2023-05-23T12:16:44.412Z,9.57
2023-05-23T12:17:47.963Z,8.71
2023-05-23T12:18:51.410Z,11.29
2023-05-23T12:19:54.764Z,9.86
2023-05-23T12:20:58.073Z,8.86
2023-05-23T12:22:01.317Z,10.43
2023-05-23T12:23:04.525Z,11.86
2023-05-23T12:24:07.793Z,13.00
2023-05-23T12:25:11.001Z,11.43
2023-05-23T12:26:14.386Z,12.00
2023-05-23T12:27:17.768Z,14.00
2023-05-23T12:28:21.071Z,13.57
2023-05-23T12:29:24.371Z,14.00
2023-05-23T12:30:27.601Z,15.00
2023-05-23T12:31:30.932Z,14.00
2023-05-23T12:32:34.334Z,13.29
2023-05-23T12:33:37.878Z,15.71
2023-05-23T12:34:41.285Z,15.14
2023-05-23T12:35:44.578Z,14.17
2023-05-23T12:36:49.391Z,13.71
2023-05-23T12:37:52.354Z,13.25
2023-05-23T12:38:55.633Z,13.14
2023-05-23T12:39:58.915Z,14.83
2023-05-23T12:41:02.220Z,15.00
2023-05-23T12:42:05.396Z,15.14
2023-05-23T12:43:08.955Z,14.29
2023-05-23T12:44:12.155Z,13.71
2023-05-23T12:45:15.411Z,15.17
2023-05-23T12:46:18.536Z,14.50
2023-05-23T12:47:21.751Z,15.43
2023-05-23T12:48:25.184Z,14.29
2023-05-23T12:49:28.509Z,14.71
2023-05-23T12:50:35.364Z,15.29
2023-05-23T12:51:38.297Z,15.38
2023-05-23T12:52:41.430Z,15.29
2023-05-23T12:53:44.590Z,15.67
2023-05-23T12:54:47.815Z,13.86
2023-05-23T12:55:50.782Z,17.14
2023-05-23T12:56:54.037Z,20.67
2023-05-23T12:57:57.213Z,17.50
2023-05-23T12:59:01.416Z,14.83
2023-05-23T13:00:04.631Z,16.75
2023-05-23T13:01:07.845Z,17.57
2023-05-23T13:02:11.066Z,17.00
2023-05-23T13:03:14.359Z,15.71
2023-05-23T13:04:17.888Z,16.00
2023-05-23T13:05:21.121Z,15.43
2023-05-23T13:06:24.312Z,14.57
2023-05-23T13:07:27.354Z,15.43
2023-05-23T13:08:30.358Z,16.00
2023-05-23T13:09:33.648Z,15.00
2023-05-23T13:10:36.730Z,17.43
2023-05-23T13:11:40.022Z,16.50
2023-05-23T13:12:43.084Z,14.14
2023-05-23T13:13:46.294Z,14.00
2023-05-23T13:14:49.456Z,16.00
2023-05-23T13:15:52.554Z,18.43
2023-05-23T13:16:55.464Z,18.33
2023-05-23T13:17:58.820Z,17.86
2023-05-23T13:19:01.889Z,14.57
2023-05-23T13:20:07.510Z,14.00
2023-05-23T13:21:10.604Z,14.25
2023-05-23T13:22:13.564Z,12.29
2023-05-23T13:23:16.756Z,11.50
2023-05-23T13:24:20.052Z,14.86
2023-05-23T13:25:23.121Z,16.71
2023-05-23T13:26:26.132Z,16.86
2023-05-23T13:27:29.371Z,17.83
2023-05-23T13:28:32.568Z,16.57
2023-05-23T13:29:35.666Z,16.71
2023-05-23T13:30:38.817Z,16.57
2023-05-23T13:31:42.207Z,19.86
2023-05-23T13:32:45.444Z,16.86
2023-05-23T13:33:48.590Z,15.43
2023-05-23T13:34:51.647Z,18.71
2023-05-23T13:35:54.812Z,21.67
2023-05-23T13:36:57.775Z,23.14
2023-05-23T13:38:00.752Z,19.33
2023-05-23T13:39:07.174Z,18.86
2023-05-23T13:40:13.307Z,19.00
2023-05-23T13:41:16.891Z,17.12
2023-05-23T13:42:20.367Z,17.43
2023-05-23T13:43:23.754Z,18.71
2023-05-23T13:44:26.776Z,18.43
2023-05-23T13:45:29.987Z,18.71
2023-05-23T13:46:33.361Z,17.86
2023-05-23T13:47:36.839Z,16.00
2023-05-23T13:48:40.080Z,17.86
2023-05-23T13:49:43.570Z,20.43
2023-05-23T13:50:46.911Z,16.71
2023-05-23T13:51:50.276Z,15.00
2023-05-23T13:52:53.578Z,16.14
2023-05-23T13:53:56.817Z,19.29
2023-05-23T13:55:00.300Z,19.43
2023-05-23T13:56:03.579Z,22.57
2023-05-23T13:57:06.858Z,24.33
2023-05-23T13:58:10.022Z,22.57
2023-05-23T13:59:13.333Z,20.57
2023-05-23T14:00:16.737Z,20.00
2023-05-23T14:01:20.161Z,18.86